Time;durP1;ratioP1;P1;durP2;ratioP2;P2;SDS_P1;SDS_P2;PMS_P1;PMS_P2;Temp;Humidity;BMP_temperature;BMP_pressure;BME280_temperature;BME280_humidity;BME280_pressure;Samples;Min_cycle;Max_cycle;Signal;HPM_P1;HPM_P2
2022/09/06 00:01:23;;;;;;;8.68;7.00;;;;;;;26.28;41.76;101722.16;4994418;28;20530;-73
2022/09/06 00:03:49;;;;;;;10.23;7.85;;;;;;;26.24;42.13;101721.75;4994846;28;20050;-73
2022/09/06 00:06:17;;;;;;;9.07;7.60;;;;;;;26.25;41.75;101711.88;4995299;28;20041;-73
2022/09/06 00:08:44;;;;;;;9.50;7.50;;;;;;;26.25;42.13;101714.56;4995226;28;20075;-73
2022/09/06 00:11:10;;;;;;;11.70;8.43;;;;;;;26.24;41.97;101708.41;4994973;28;20570;-72
2022/09/06 00:13:36;;;;;;;10.68;7.97;;;;;;;26.25;41.88;101711.88;4999614;28;20220;-73
2022/09/06 00:16:10;;;;;;;11.50;7.70;;;;;;;26.24;42.12;101710.25;4994994;28;20037;-73
2022/09/06 00:18:36;;;;;;;10.05;8.00;;;;;;;26.20;41.78;101705.28;4997017;28;20025;-73
2022/09/06 00:21:03;;;;;;;9.88;7.68;;;;;;;26.15;41.86;101704.25;4978844;28;20025;-72
2022/09/06 00:23:29;;;;;;;9.10;7.50;;;;;;;26.20;41.77;101710.63;4994172;28;20038;-72
2022/09/06 00:26:02;;;;;;;10.68;7.90;;;;;;;26.22;42.08;101713.13;4975106;28;20411;-72
2022/09/06 00:28:27;;;;;;;8.70;7.75;;;;;;;26.22;41.73;101706.97;4991114;28;20033;-73
2022/09/06 00:30:53;;;;;;;9.50;7.13;;;;;;;26.19;42.02;101708.16;4991220;28;20046;-72
2022/09/06 00:33:18;;;;;;;8.55;7.22;;;;;;;26.17;41.75;101699.53;4989371;28;20096;-74
2022/09/06 00:35:46;;;;;;;10.05;7.07;;;;;;;26.18;41.72;101701.16;4992353;28;20053;-72
2022/09/06 00:38:11;;;;;;;10.82;7.45;;;;;;;26.17;42.01;101705.69;4993791;28;20037;-73
2022/09/06 00:40:37;;;;;;;9.32;7.13;;;;;;;26.19;41.57;101716.16;4989399;28;20044;-73
2022/09/06 00:43:03;;;;;;;8.82;7.45;;;;;;;26.17;41.95;101708.34;4992036;28;20130;-72
2022/09/06 00:45:30;;;;;;;9.02;7.65;;;;;;;26.15;42.07;101712.25;4991651;28;20041;-73
2022/09/06 00:47:58;;;;;;;11.95;8.15;;;;;;;26.17;41.66;101712.88;4990740;28;20080;-72
2022/09/06 00:50:24;;;;;;;11.10;7.82;;;;;;;26.16;41.65;101706.72;4993767;28;20496;-73
2022/09/06 00:52:51;;;;;;;9.45;7.65;;;;;;;26.14;41.55;101707.94;4991028;28;20153;-73
2022/09/06 00:55:17;;;;;;;13.25;7.88;;;;;;;26.16;42.03;101705.88;4994155;28;20046;-73
2022/09/06 00:57:45;;;;;;;11.68;7.95;;;;;;;26.14;41.67;101699.94;4989646;28;20050;-74
2022/09/06 01:00:11;;;;;;;8.55;7.32;;;;;;;26.12;41.69;101702.81;4992954;28;20495;-73
2022/09/06 01:02:37;;;;;;;10.00;7.90;;;;;;;26.11;42.03;101709.16;4992897;28;20152;-72
2022/09/06 01:05:04;;;;;;;9.88;7.60;;;;;;;26.12;41.69;101708.16;4991536;28;21183;-72
2022/09/06 01:07:56;;;;;;;14.90;7.65;;;;;;;26.15;42.05;101712.25;4992229;28;20037;-72
2022/09/06 01:10:27;;;;;;;8.73;7.45;;;;;;;26.12;41.75;101716.16;4967160;28;20711;-72
2022/09/06 01:13:20;;;;;;;9.55;7.90;;;;;;;26.10;41.72;101712.03;4992015;28;21233;-72
2022/09/06 01:16:12;;;;;;;9.20;7.82;;;;;;;26.10;41.84;101709.38;4989927;28;20045;-72
2022/09/06 01:18:44;;;;;;;10.73;8.20;;;;;;;26.10;42.13;101712.88;4976535;28;20029;-73
2022/09/06 01:21:34;;;;;;;8.95;7.82;;;;;;;26.09;42.15;101707.72;4984304;28;20424;-73
2022/09/06 01:24:18;;;;;;;10.95;7.90;;;;;;;26.10;42.13;101717.38;4992917;28;20503;-73
2022/09/06 01:27:02;;;;;;;9.85;7.75;;;;;;;26.07;41.88;101718.59;4995948;28;20069;-72
2022/09/06 01:29:33;;;;;;;9.55;7.93;;;;;;;26.09;41.86;101721.91;4994737;28;20735;-72
2022/09/06 01:32:13;;;;;;;8.70;7.80;;;;;;;26.07;42.17;101712.44;4994444;28;20064;-72
2022/09/06 01:34:42;;;;;;;;;;;;;;;26.06;42.17;101697.47;4992045;28;20126;-73
2022/09/06 01:37:13;;;;;;;8.85;7.95;;;;;;;26.04;41.96;101692.31;4994624;28;20066;-73
2022/09/06 01:39:40;;;;;;;9.40;7.85;;;;;;;26.03;42.24;101698.69;4991204;28;20052;-72
2022/09/06 01:42:20;;;;;;;10.52;7.80;;;;;;;26.04;42.24;101710.19;4999101;28;20042;-73
2022/09/06 01:44:54;;;;;;;;;;;;;;;26.03;42.26;101705.84;4995546;28;20056;-72
2022/09/06 01:47:46;;;;;;;10.48;8.57;;;;;;;26.04;42.19;101696.84;4980000;28;20019;-73
2022/09/06 01:50:27;;;;;;;11.15;7.70;;;;;;;26.06;41.95;101697.47;4994525;28;20408;-72
2022/09/06 01:53:05;;;;;;;8.73;7.30;;;;;;;26.03;41.98;101701.34;4991787;28;20041;-72
2022/09/06 01:55:36;;;;;;;11.55;7.60;;;;;;;26.02;42.25;101706.88;4991382;28;20042;-70
2022/09/06 01:58:16;;;;;;;10.40;7.70;;;;;;;26.02;41.90;101690.84;4993051;28;20099;-71
2022/09/06 02:01:07;;;;;;;9.70;6.95;;;;;;;25.92;42.22;101693.91;4992937;28;20049;-72
2022/09/06 02:03:58;;;;;;;10.10;8.18;;;;;;;25.88;42.65;101693.50;4996325;28;20038;-73
2022/09/06 02:06:28;;;;;;;8.23;7.40;;;;;;;25.88;42.69;101692.66;4999323;28;20045;-73
2022/09/06 02:09:01;;;;;;;12.75;8.50;;;;;;;25.92;42.50;101690.41;4997438;28;20292;-73
2022/09/06 02:11:32;;;;;;;11.27;7.38;;;;;;;25.96;42.29;101683.66;4997167;28;21653;-73
2022/09/06 02:14:05;;;;;;;9.32;7.53;;;;;;;25.95;42.34;101687.34;4997881;28;20044;-73
2022/09/06 02:16:32;;;;;;;9.75;7.80;;;;;;;25.94;42.30;101689.19;4995531;28;20129;-73
2022/09/06 02:19:00;;;;;;;7.93;7.13;;;;;;;25.89;42.50;101675.63;4997176;28;20121;-73
2022/09/06 02:21:31;;;;;;;9.98;7.70;;;;;;;25.95;42.36;101684.69;4992399;28;20066;-73
2022/09/06 02:24:00;;;;;;;9.15;7.68;;;;;;;25.93;42.73;101692.06;4997006;28;20124;-73
2022/09/06 02:26:31;;;;;;;7.65;6.85;;;;;;;25.93;42.86;101686.72;4993580;28;20070;-73
2022/09/06 02:28:57;;;;;;;9.27;7.93;;;;;;;25.96;42.64;101686.31;4994194;28;20034;-73
2022/09/06 02:31:33;;;;;;;9.55;7.38;;;;;;;25.94;42.57;101689.19;4993610;28;20046;-73
2022/09/06 02:33:59;;;;;;;7.35;6.50;;;;;;;25.94;42.84;101688.38;4999243;28;20038;-73
2022/09/06 02:36:24;;;;;;;8.25;7.43;;;;;;;25.94;42.79;101688.38;4997510;28;20046;-73
2022/09/06 02:38:50;;;;;;;9.10;7.45;;;;;;;25.93;42.83;101682.22;4998696;28;20536;-73
2022/09/06 02:41:21;;;;;;;8.32;7.43;;;;;;;25.92;42.94;101679.75;4987179;28;20392;-73
2022/09/06 02:43:46;;;;;;;10.73;7.65;;;;;;;25.96;42.55;101672.97;4995604;28;21032;-73
2022/09/06 02:46:12;;;;;;;8.23;6.93;;;;;;;25.93;42.63;101674.22;4995376;28;20042;-74
2022/09/06 02:48:37;;;;;;;8.40;6.75;;;;;;;25.94;43.04;101672.34;4982179;28;20038;-73
2022/09/06 02:51:07;;;;;;;8.82;7.50;;;;;;;25.96;42.55;101673.81;4998036;28;20049;-73
2022/09/06 02:53:34;;;;;;;8.43;7.43;;;;;;;25.94;42.62;101673.19;4999925;28;20064;-74
2022/09/06 02:55:59;;;;;;;8.68;7.60;;;;;;;25.90;43.16;101671.94;4994465;28;20040;-75
2022/09/06 02:58:25;;;;;;;10.15;8.15;;;;;;;25.93;42.75;101663.53;4980557;28;20050;-73
2022/09/06 03:00:51;;;;;;;9.55;7.45;;;;;;;25.94;42.99;101665.19;5001014;28;20064;-73
2022/09/06 03:03:19;;;;;;;8.00;7.18;;;;;;;25.90;42.83;101667.44;4995185;28;20392;-73
2022/09/06 03:05:51;;;;;;;9.02;7.15;;;;;;;25.91;43.07;101665.59;5000482;28;20038;-73
2022/09/06 03:08:18;;;;;;;7.70;6.55;;;;;;;25.92;42.85;101663.75;4992837;28;20046;-73
2022/09/06 03:10:51;;;;;;;9.10;7.07;;;;;;;25.95;42.94;101658.00;4996701;28;20042;-73
2022/09/06 03:13:17;;;;;;;8.40;6.90;;;;;;;25.94;42.99;101659.00;4996512;28;20046;-73
2022/09/06 03:15:43;;;;;;;8.02;7.22;;;;;;;25.93;42.83;101655.53;4998182;28;20030;-73
2022/09/06 03:18:08;;;;;;;9.05;7.78;;;;;;;25.90;42.73;101651.41;4995394;28;20042;-73
2022/09/06 03:20:34;;;;;;;8.65;7.53;;;;;;;25.92;43.14;101645.88;4993654;28;20042;-74
2022/09/06 03:22:59;;;;;;;9.60;7.63;;;;;;;25.88;43.15;101629.44;4997442;28;20057;-73
2022/09/06 03:25:25;;;;;;;8.25;7.38;;;;;;;25.93;42.70;101634.19;4993172;28;20089;-73
2022/09/06 03:27:51;;;;;;;8.50;7.50;;;;;;;25.90;43.08;101626.59;4997813;28;20041;-74
2022/09/06 03:30:17;;;;;;;7.68;6.90;;;;;;;25.93;42.71;101630.69;4994183;28;20061;-74
2022/09/06 03:32:42;;;;;;;8.18;7.38;;;;;;;25.91;42.77;101625.56;4999065;28;20030;-74
2022/09/06 03:35:09;;;;;;;7.60;6.80;;;;;;;25.95;42.80;101633.97;4994183;28;20038;-74
2022/09/06 03:37:34;;;;;;;8.05;7.25;;;;;;;25.90;42.95;101631.91;4991647;28;20484;-73
2022/09/06 03:40:00;;;;;;;8.60;7.05;;;;;;;25.92;43.16;101623.72;4996771;28;20137;-73
2022/09/06 03:42:26;;;;;;;9.40;7.15;;;;;;;25.93;42.94;101638.69;4996673;28;20042;-73
2022/09/06 03:44:52;;;;;;;7.70;6.90;;;;;;;25.89;42.81;101633.75;4995058;28;20046;-73
2022/09/06 03:47:18;;;;;;;8.38;6.88;;;;;;;25.89;42.83;101641.78;4994916;28;20046;-73
2022/09/06 03:49:44;;;;;;;8.30;6.80;;;;;;;25.90;43.04;101634.59;4980723;28;20758;-74
2022/09/06 03:52:10;;;;;;;8.07;7.28;;;;;;;25.92;43.06;101629.88;5000719;28;20042;-73
2022/09/06 03:54:35;;;;;;;8.27;7.35;;;;;;;25.90;43.11;101634.59;5002011;28;20049;-73
2022/09/06 03:57:01;;;;;;;8.15;7.30;;;;;;;25.87;43.03;101624.31;5000286;28;20109;-74
2022/09/06 03:59:26;;;;;;;8.77;7.18;;;;;;;25.91;43.09;101625.56;5002431;28;20065;-74
2022/09/06 04:01:52;;;;;;;8.32;7.53;;;;;;;25.94;43.05;101627.00;4998214;28;20030;-73
2022/09/06 04:04:18;;;;;;;7.75;6.95;;;;;;;25.89;43.19;101625.75;5000496;28;20599;-73
2022/09/06 04:06:43;;;;;;;8.93;7.53;;;;;;;25.91;42.99;101630.91;5001638;28;20408;-74
2022/09/06 04:09:08;;;;;;;7.70;6.85;;;;;;;25.94;42.91;101635.81;4997184;28;20049;-74
2022/09/06 04:11:34;;;;;;;8.68;7.03;;;;;;;25.93;43.07;101628.03;4995006;28;20064;-75
2022/09/06 04:13:59;;;;;;;8.63;7.07;;;;;;;25.91;42.87;101633.56;5001397;28;20041;-74
2022/09/06 04:16:25;;;;;;;8.30;7.18;;;;;;;25.91;43.23;101641.56;4981926;28;20041;-74
2022/09/06 04:18:50;;;;;;;8.32;6.93;;;;;;;25.93;42.86;101646.69;4998915;28;20050;-74
2022/09/06 04:21:16;;;;;;;7.32;6.47;;;;;;;25.87;43.30;101643.00;5000329;28;20034;-73
2022/09/06 04:23:42;;;;;;;8.05;7.22;;;;;;;25.88;43.31;101636.63;5003734;28;20700;-74
2022/09/06 04:26:07;;;;;;;8.23;7.22;;;;;;;25.90;43.15;101648.75;5000126;28;20079;-74
2022/09/06 04:28:33;;;;;;;8.52;7.20;;;;;;;25.88;43.25;101639.31;4995038;28;20033;-74
2022/09/06 04:31:00;;;;;;;7.70;6.90;;;;;;;25.89;43.10;101646.28;5000571;28;20435;-74
2022/09/06 04:33:27;;;;;;;8.77;7.20;;;;;;;25.89;42.96;101636.44;4997924;28;20057;-74
2022/09/06 04:35:55;;;;;;;8.00;7.15;;;;;;;25.88;42.96;101649.97;5002059;28;20049;-74
2022/09/06 04:38:22;;;;;;;7.82;6.93;;;;;;;25.90;42.75;101659.44;4999986;28;20472;-75
2022/09/06 04:40:47;;;;;;;7.55;6.75;;;;;;;25.84;43.24;101662.03;4999402;28;20132;-75
2022/09/06 04:43:13;;;;;;;8.32;7.13;;;;;;;25.90;42.90;101667.44;4980156;28;20046;-74
2022/09/06 04:45:39;;;;;;;9.45;6.82;;;;;;;25.88;43.12;101668.66;4999115;28;20496;-75
2022/09/06 04:48:05;;;;;;;7.90;7.05;;;;;;;25.89;43.21;101664.97;5001078;28;20100;-75
2022/09/06 04:50:30;;;;;;;8.52;7.25;;;;;;;25.86;43.17;101670.69;4998448;28;20448;-75
2022/09/06 04:53:03;;;;;;;7.85;7.03;;;;;;;25.87;42.89;101662.50;5004939;28;20061;-74
2022/09/06 04:55:30;;;;;;;9.23;7.60;;;;;;;25.87;42.94;101665.16;4996468;28;20044;-75
2022/09/06 04:57:59;;;;;;;8.00;7.20;;;;;;;25.89;42.82;101665.78;5001083;28;20038;-75
2022/09/06 05:00:29;;;;;;;7.88;7.07;;;;;;;25.88;42.97;101664.13;4999952;28;20652;-75
2022/09/06 05:02:54;;;;;;;7.93;7.13;;;;;;;25.86;43.26;101663.53;5003016;28;20049;-73
2022/09/06 05:05:21;;;;;;;8.82;7.63;;;;;;;25.87;42.91;101661.69;4998745;28;20100;-73
2022/09/06 05:07:47;;;;;;;8.65;7.38;;;;;;;25.86;43.26;101670.69;4983581;28;20050;-74
2022/09/06 05:10:13;;;;;;;8.45;7.43;;;;;;;25.84;42.98;101668.22;4996248;28;20121;-74
2022/09/06 05:12:38;;;;;;;7.55;6.85;;;;;;;25.87;43.17;101670.50;4992511;28;20041;-74
2022/09/06 05:15:04;;;;;;;7.50;6.70;;;;;;;25.89;43.10;101664.97;4994557;28;20409;-73
2022/09/06 05:17:30;;;;;;;8.25;7.13;;;;;;;25.87;43.37;101665.16;4994101;28;20137;-73
2022/09/06 05:19:55;;;;;;;9.15;7.50;;;;;;;25.89;43.32;101668.44;4996036;28;20042;-73
2022/09/06 05:22:21;;;;;;;8.90;7.45;;;;;;;25.90;43.08;101663.94;4999920;28;20057;-74
2022/09/06 05:24:46;;;;;;;8.35;7.45;;;;;;;25.89;43.01;101667.63;4996707;28;20046;-73
2022/09/06 05:27:13;;;;;;;8.48;6.75;;;;;;;25.87;43.56;101672.34;4995131;28;20384;-74
2022/09/06 05:29:38;;;;;;;8.25;7.35;;;;;;;25.85;43.32;101669.88;4993723;28;20069;-74
2022/09/06 05:32:04;;;;;;;7.95;7.15;;;;;;;25.82;43.27;101664.91;4998440;28;20921;-73
2022/09/06 05:34:29;;;;;;;7.82;7.03;;;;;;;25.88;43.13;101666.00;4999139;28;20040;-74
2022/09/06 05:36:55;;;;;;;9.00;7.90;;;;;;;25.85;42.96;101669.03;4997355;28;20041;-74
2022/09/06 05:39:20;;;;;;;9.13;7.75;;;;;;;25.86;43.04;101671.53;4996973;28;20049;-73
2022/09/06 05:41:46;;;;;;;8.93;7.25;;;;;;;25.86;43.40;101673.38;4999324;28;20754;-73
2022/09/06 05:44:13;;;;;;;8.60;7.25;;;;;;;25.85;43.28;101672.56;4979178;28;20108;-74
2022/09/06 05:46:45;;;;;;;8.10;7.30;;;;;;;25.86;43.00;101674.19;4997284;28;20121;-74
2022/09/06 05:49:12;;;;;;;9.32;7.55;;;;;;;25.87;43.37;101681.19;5001375;28;20141;-74
2022/09/06 05:51:39;;;;;;;7.97;7.20;;;;;;;25.84;43.13;101694.88;4980916;28;20484;-73
2022/09/06 05:54:05;;;;;;;8.80;7.90;;;;;;;25.81;43.27;101687.28;5001145;28;20137;-74
2022/09/06 05:56:31;;;;;;;9.57;8.20;;;;;;;25.85;42.84;101687.72;5002146;28;20487;-74
2022/09/06 05:58:56;;;;;;;9.57;8.13;;;;;;;25.83;42.98;101684.41;5003287;28;20048;-74
2022/09/06 06:01:26;;;;;;;8.57;7.68;;;;;;;25.82;42.95;101688.09;5003536;28;20412;-74
2022/09/06 06:03:58;;;;;;;8.75;7.60;;;;;;;25.85;43.21;101690.38;5001472;28;20104;-76
2022/09/06 06:06:25;;;;;;;8.73;7.18;;;;;;;25.83;42.93;101685.25;5002764;28;20034;-72
2022/09/06 06:08:51;;;;;;;9.68;8.43;;;;;;;25.82;43.33;101680.94;5001789;28;20033;-74
2022/09/06 06:11:16;;;;;;;9.90;7.70;;;;;;;25.83;42.91;101679.91;4997845;28;20107;-72
2022/09/06 06:13:43;;;;;;;11.13;8.05;;;;;;;25.84;43.03;101684.22;4993852;28;20125;-72
2022/09/06 06:16:13;;;;;;;8.90;8.00;;;;;;;25.84;43.21;101681.56;4999423;28;20045;-72
2022/09/06 06:18:39;;;;;;;8.90;7.75;;;;;;;25.85;43.05;101680.56;5003868;28;20494;-72
2022/09/06 06:21:12;;;;;;;11.20;8.77;;;;;;;25.84;43.26;101680.72;5003642;28;20036;-72
2022/09/06 06:23:39;;;;;;;10.40;7.85;;;;;;;25.83;42.96;101679.91;5000700;28;20099;-72
2022/09/06 06:26:06;;;;;;;9.13;7.90;;;;;;;25.85;43.09;101672.56;4973526;28;20464;-72
2022/09/06 06:28:32;;;;;;;9.35;8.20;;;;;;;25.87;42.92;101675.03;4996937;28;20061;-73
2022/09/06 06:30:58;;;;;;;8.88;7.97;;;;;;;25.86;42.92;101668.03;4999343;28;20052;-73
2022/09/06 06:33:23;;;;;;;10.32;9.07;;;;;;;25.84;43.13;101667.38;4994385;28;20106;-75
2022/09/06 06:36:23;;;;;;;10.82;9.45;;;;;;;25.86;43.02;101660.03;4993741;28;20041;-74
2022/09/06 06:38:51;;;;;;;9.75;8.23;;;;;;;25.85;42.96;101656.53;4987382;28;20132;-75
2022/09/06 06:41:18;;;;;;;9.05;8.13;;;;;;;25.82;42.85;101656.91;4994615;28;20092;-75
2022/09/06 06:43:44;;;;;;;10.38;8.77;;;;;;;25.85;42.83;101653.88;5003581;28;20727;-75
2022/09/06 06:46:14;;;;;;;10.25;8.55;;;;;;;25.86;43.13;101652.03;4992345;28;20112;-74
2022/09/06 06:48:42;;;;;;;9.20;8.23;;;;;;;25.84;43.07;101643.38;4994302;28;20037;-75
2022/09/06 06:51:08;;;;;;;10.43;8.88;;;;;;;25.84;42.79;101654.88;4994964;28;20045;-74
2022/09/06 06:53:34;;;;;;;12.63;8.68;;;;;;;25.85;43.11;101655.69;4993878;28;20046;-73
2022/09/06 06:56:00;;;;;;;10.45;9.32;;;;;;;25.83;43.13;101669.22;4993539;28;20029;-75
2022/09/06 06:58:26;;;;;;;10.20;8.63;;;;;;;25.85;42.72;101674.38;4991246;28;20124;-75
2022/09/06 07:00:51;;;;;;;10.32;8.65;;;;;;;25.80;43.17;101674.16;4990673;28;20038;-76
2022/09/06 07:03:17;;;;;;;9.95;8.57;;;;;;;25.81;43.30;101681.94;4996115;28;20068;-76
2022/09/06 07:05:45;;;;;;;10.32;9.23;;;;;;;25.78;42.96;101669.00;4993844;28;20072;-76
2022/09/06 07:08:11;;;;;;;12.25;8.88;;;;;;;25.82;43.25;101675.59;4992788;28;20424;-76
2022/09/06 07:10:36;;;;;;;10.60;9.50;;;;;;;25.83;43.25;101671.91;5001388;28;20051;-76
2022/09/06 07:13:02;;;;;;;10.98;9.70;;;;;;;25.81;43.20;101665.94;4996040;28;20045;-76
2022/09/06 07:15:27;;;;;;;10.48;9.18;;;;;;;25.84;43.05;101659.38;5000980;28;20052;-76
2022/09/06 07:17:55;;;;;;;11.30;9.45;;;;;;;25.83;43.22;101652.41;4996856;28;20488;-76
2022/09/06 07:20:20;;;;;;;10.70;9.20;;;;;;;25.83;43.27;101650.56;5000643;28;20120;-76
2022/09/06 07:22:46;;;;;;;9.95;8.45;;;;;;;25.86;42.92;101663.53;5003136;28;20052;-76
2022/09/06 07:25:14;;;;;;;11.52;8.48;;;;;;;25.86;43.16;101660.84;4998615;28;20121;-76
2022/09/06 07:27:39;;;;;;;9.73;8.55;;;;;;;25.81;42.84;101649.13;5005186;28;20387;-76
2022/09/06 07:30:05;;;;;;;11.35;8.93;;;;;;;25.78;42.90;101642.34;4998971;28;20037;-76
2022/09/06 07:32:33;;;;;;;10.32;8.63;;;;;;;25.88;42.94;101655.31;4992445;28;20241;-76
2022/09/06 07:34:59;;;;;;;11.38;8.93;;;;;;;25.88;42.75;101645.47;5004846;28;20119;-76
2022/09/06 07:37:24;;;;;;;10.05;8.80;;;;;;;25.90;42.82;101639.91;4985993;28;20041;-76
2022/09/06 07:39:50;;;;;;;11.18;9.18;;;;;;;25.93;42.82;101644.03;5005058;28;20038;-76
2022/09/06 07:42:15;;;;;;;11.07;9.02;;;;;;;25.94;43.22;101630.47;5002634;28;20136;-76
2022/09/06 07:44:41;;;;;;;13.07;9.63;;;;;;;25.97;43.03;101634.59;5006441;28;20472;-76
2022/09/06 07:47:07;;;;;;;12.05;9.65;;;;;;;25.97;43.28;101629.25;5003144;28;20033;-76
2022/09/06 07:49:32;;;;;;;18.42;10.02;;;;;;;25.97;43.31;101632.75;5002652;28;20046;-76
2022/09/06 07:51:58;;;;;;;13.45;9.18;;;;;;;25.98;42.95;101636.25;5004762;28;20578;-75
2022/09/06 07:54:23;;;;;;;14.18;9.75;;;;;;;26.00;43.34;101624.34;5003118;28;20061;-75
2022/09/06 07:56:49;;;;;;;16.20;10.18;;;;;;;26.01;43.30;101614.47;5001717;28;20051;-75
2022/09/06 07:59:15;;;;;;;13.75;9.77;;;;;;;26.02;43.11;101611.59;5001384;28;20033;-74
2022/09/06 08:01:41;;;;;;;18.08;9.38;;;;;;;26.04;42.80;101612.25;5005358;28;20034;-75
2022/09/06 08:04:07;;;;;;;14.93;9.07;;;;;;;26.05;43.16;101613.91;4999407;28;20564;-75
2022/09/06 08:06:36;;;;;;;14.85;9.65;;;;;;;26.07;43.18;101616.34;4999556;28;20025;-74
2022/09/06 08:09:03;;;;;;;15.23;8.90;;;;;;;26.05;43.10;101603.22;5000706;28;20038;-75
2022/09/06 08:11:30;;;;;;;15.45;9.50;;;;;;;26.12;43.20;101617.38;4988395;28;20113;-75
2022/09/06 08:13:57;;;;;;;16.75;9.25;;;;;;;26.09;42.83;101616.97;5002508;28;20068;-75
2022/09/06 08:16:26;;;;;;;13.15;9.77;;;;;;;26.10;43.19;101624.78;4999777;28;20073;-76
2022/09/06 08:19:03;;;;;;;15.90;9.43;;;;;;;26.10;43.35;101626.63;4990064;28;20038;-75
2022/09/06 08:21:31;;;;;;;13.55;9.63;;;;;;;26.10;43.18;101629.28;4983971;28;20034;-74
2022/09/06 08:23:59;;;;;;;12.93;9.30;;;;;;;26.12;42.87;101632.59;5000029;28;20735;-73
2022/09/06 08:26:26;;;;;;;15.52;10.20;;;;;;;26.14;42.88;101641.22;4998086;28;20026;-73
2022/09/06 08:29:00;;;;;;;13.75;9.55;;;;;;;26.11;42.89;101636.28;4999909;28;20112;-76
2022/09/06 08:31:27;;;;;;;15.23;9.63;;;;;;;26.16;42.88;101637.31;5000811;28;20046;-75
2022/09/06 08:33:53;;;;;;;15.40;10.07;;;;;;;26.17;43.01;101643.47;5002627;28;20488;-75
2022/09/06 08:36:20;;;;;;;17.55;9.65;;;;;;;26.19;43.26;101646.75;4998533;28;20136;-73
2022/09/06 08:38:45;;;;;;;18.50;10.07;;;;;;;26.18;42.93;101645.13;5003122;28;20057;-77
2022/09/06 08:41:25;;;;;;;17.25;10.70;;;;;;;26.21;42.75;101642.03;4982480;28;20034;-75
2022/09/06 08:43:59;;;;;;;20.70;10.52;;;;;;;26.22;42.88;101659.72;4997512;28;20034;-73
2022/09/06 08:46:35;;;;;;;17.60;9.07;;;;;;;26.20;42.91;101653.72;5002384;28;20048;-76
2022/09/06 08:49:02;;;;;;;20.58;10.50;;;;;;;26.20;43.32;101646.53;4996685;28;20041;-75
2022/09/06 08:51:36;;;;;;;19.52;10.93;;;;;;;26.23;43.24;101644.53;4988485;28;20053;-76
2022/09/06 08:54:14;;;;;;;21.10;9.43;;;;;;;26.24;42.87;101651.50;4998243;28;21241;-76
2022/09/06 08:57:16;;;;;;;16.92;10.27;;;;;;;26.24;43.23;101652.34;5001570;28;20582;-76
2022/09/06 08:59:42;;;;;;;45.50;15.07;;;;;;;26.30;42.77;101640.00;5001416;28;20049;-73
2022/09/06 09:02:18;;;;;;;28.38;12.60;;;;;;;26.31;42.79;101639.81;5000919;28;20066;-73
2022/09/06 09:04:51;;;;;;;26.63;12.68;;;;;;;26.33;42.94;101643.09;5001693;28;20038;-71
2022/09/06 09:07:28;;;;;;;26.52;12.52;;;;;;;26.43;43.17;101640.88;4999569;28;20034;-69
2022/09/06 09:09:56;;;;;;;30.35;12.40;;;;;;;26.43;42.97;101643.56;5003430;28;20037;-70
2022/09/06 09:12:23;;;;;;;28.25;13.15;;;;;;;26.31;43.57;101641.66;5004806;28;20050;-72
2022/09/06 09:15:04;;;;;;;20.58;12.95;;;;;;;26.33;43.15;101637.75;5003206;28;20050;-73
2022/09/06 09:17:30;;;;;;;21.45;12.18;;;;;;;26.37;43.17;101639.00;5001647;28;20476;-71
2022/09/06 09:19:56;;;;;;;25.85;11.82;;;;;;;26.35;43.31;101635.72;4996427;28;20042;-72
2022/09/06 09:22:23;;;;;;;18.88;12.52;;;;;;;26.36;43.04;101634.69;4980579;28;20046;-73
2022/09/06 09:24:51;;;;;;;;;;;;;;;26.43;43.11;101637.38;4956243;28;20860;-65
2022/09/06 09:27:21;;;;;;;27.23;12.57;;;;;;;26.56;42.87;101640.03;4982047;28;19944;-67
2022/09/06 09:29:53;;;;;;;27.27;11.93;;;;;;;26.68;43.00;101637.59;4997445;28;20029;-67
2022/09/06 09:32:48;;;;;;;22.73;12.07;;;;;;;26.77;42.86;101626.50;4999929;28;20144;-67
2022/09/06 09:35:23;;;;;;;25.02;11.27;;;;;;;26.82;42.37;101636.56;4982635;28;20056;-68
2022/09/06 09:38:05;;;;;;;19.83;11.73;;;;;;;26.77;43.07;101636.38;4998290;28;20476;-66
2022/09/06 09:40:41;;;;;;;20.50;12.27;;;;;;;26.78;43.07;101638.84;4986940;28;20063;-66
2022/09/06 09:43:20;;;;;;;26.30;11.73;;;;;;;26.86;42.38;101635.13;4932283;28;20041;-68
2022/09/06 09:46:11;;;;;;;22.30;11.32;;;;;;;26.97;42.68;101636.34;4994770;28;20038;-68
2022/09/06 09:48:38;;;;;;;18.15;11.27;;;;;;;26.99;42.76;101640.44;4988300;28;20041;-66
2022/09/06 09:51:22;;;;;;;22.52;11.50;;;;;;;26.95;42.57;101636.56;4993734;28;20542;-64
2022/09/06 09:53:50;;;;;;;26.80;11.23;;;;;;;26.98;42.22;101638.81;4993048;28;20041;-64
2022/09/06 09:56:16;;;;;;;21.83;11.82;;;;;;;27.09;42.09;101637.38;4992572;28;20041;-69
2022/09/06 09:58:41;;;;;;;23.92;11.02;;;;;;;27.14;42.06;101637.59;4966612;28;20093;-66
2022/09/06 10:01:10;;;;;;;24.27;11.43;;;;;;;27.17;41.88;101633.66;4996766;28;20046;-67
2022/09/06 10:03:35;;;;;;;19.50;12.02;;;;;;;27.20;42.02;101631.38;4995562;28;20052;-65
2022/09/06 10:06:01;;;;;;;17.30;10.90;;;;;;;27.24;42.29;101631.78;4981168;28;20038;-65
2022/09/06 10:08:31;;;;;;;25.30;11.75;;;;;;;27.30;41.82;101631.78;4998430;28;20160;-67
2022/09/06 10:11:03;;;;;;;24.75;11.30;;;;;;;27.30;41.96;101633.66;4998800;28;20476;-67
2022/09/06 10:13:29;;;;;;;16.15;10.95;;;;;;;27.32;42.19;101632.41;4992815;28;20136;-66
2022/09/06 10:16:01;;;;;;;24.15;11.55;;;;;;;27.28;41.86;101630.31;5001519;28;20151;-67
2022/09/06 10:18:39;;;;;;;24.58;11.98;;;;;;;27.22;42.55;101625.81;4989896;28;20104;-68
2022/09/06 10:21:09;;;;;;;19.85;12.00;;;;;;;27.20;42.06;101623.38;4996674;28;20392;-67
2022/09/06 10:24:05;;;;;;;20.55;11.77;;;;;;;27.23;41.93;101619.44;4998262;28;20054;-67
2022/09/06 10:26:35;;;;;;;20.88;10.68;;;;;;;27.20;42.60;101627.91;4997536;28;20038;-67
2022/09/06 10:29:04;;;;;;;18.63;11.52;;;;;;;27.22;42.32;101621.31;4984259;28;20392;-67
2022/09/06 10:31:42;;;;;;;25.38;11.70;;;;;;;27.22;42.18;101626.66;4997803;28;20038;-67
2022/09/06 10:34:15;;;;;;;17.30;11.18;;;;;;;27.23;42.47;101622.94;5000206;28;20854;-67
2022/09/06 10:37:06;;;;;;;22.35;10.85;;;;;;;27.24;42.55;101616.56;5006502;28;20103;-67
2022/09/06 10:39:34;;;;;;;20.92;11.18;;;;;;;27.23;42.06;101606.06;4994042;28;20676;-67
2022/09/06 10:42:17;;;;;;;21.85;11.48;;;;;;;27.23;41.99;101612.25;4991267;28;20033;-67
2022/09/06 10:44:51;;;;;;;23.20;11.75;;;;;;;27.21;42.36;101602.78;4973839;28;20774;-72
2022/09/06 10:47:17;;;;;;;19.10;11.40;;;;;;;27.23;42.22;101606.06;4997194;28;20073;-72
2022/09/06 10:49:53;;;;;;;25.02;10.65;;;;;;;27.21;42.26;101602.78;4989244;28;20663;-72
2022/09/06 10:52:27;;;;;;;24.27;12.48;;;;;;;27.19;41.96;101597.66;4993750;28;20418;-72
2022/09/06 10:55:02;;;;;;;20.35;10.80;;;;;;;27.20;42.53;101601.16;4993387;28;20547;-72
2022/09/06 10:57:47;;;;;;;23.00;11.15;;;;;;;27.22;42.43;101591.88;5000118;28;20052;-72
2022/09/06 11:00:15;;;;;;;19.92;11.75;;;;;;;27.22;42.22;101601.75;4986324;28;20113;-71
2022/09/06 11:02:58;;;;;;;24.88;11.40;;;;;;;27.23;42.52;101600.72;4994817;28;20065;-72
2022/09/06 11:05:58;;;;;;;22.63;12.27;;;;;;;27.21;42.32;101598.28;4994878;28;20041;-72
2022/09/06 11:08:35;;;;;;;21.52;11.60;;;;;;;27.23;42.13;101592.72;4950220;28;20054;-73
2022/09/06 11:11:09;;;;;;;22.70;12.48;;;;;;;27.24;42.24;101589.00;4995526;28;20129;-73
2022/09/06 11:13:38;;;;;;;22.70;11.70;;;;;;;27.24;42.34;101587.16;4950604;28;20052;-72
2022/09/06 11:16:44;;;;;;;17.02;11.40;;;;;;;27.22;42.22;101589.22;4995202;28;20049;-73
2022/09/06 11:19:45;;;;;;;18.60;11.90;;;;;;;27.23;42.47;101582.00;4965677;28;20042;-73
2022/09/06 11:22:42;;;;;;;28.70;12.45;;;;;;;27.20;42.05;101585.13;4995789;28;20117;-73
2022/09/06 11:25:42;;;;;;;24.45;11.32;;;;;;;27.22;42.17;101577.69;4997845;28;20498;-74
2022/09/06 11:28:21;;;;;;;25.85;12.07;;;;;;;27.24;42.38;101584.47;4988924;28;20034;-73
2022/09/06 11:30:49;;;;;;;23.27;10.93;;;;;;;27.23;42.36;101579.34;4993529;28;20155;-73
2022/09/06 11:33:28;;;;;;;23.85;12.63;;;;;;;27.20;42.29;101582.44;4997430;28;20045;-74